Time;durP1;ratioP1;P1;durP2;ratioP2;P2;SDS_P1;SDS_P2;PMS_P1;PMS_P2;Temp;Humidity;BMP_temperature;BMP_pressure;BME280_temperature;BME280_humidity;BME280_pressure;Samples;Min_cycle;Max_cycle;Signal;HPM_P1;HPM_P2
2023/08/10 00:00:59;;;;;;;4.88;3.42;;;;;;;;;;5136296;27;20185;-89
2023/08/10 00:03:27;;;;;;;5.32;3.90;;;;;;;;;;5137934;27;20570;-90
2023/08/10 00:05:54;;;;;;;3.47;3.17;;;;;;;;;;5136265;27;20208;-90
2023/08/10 00:08:22;;;;;;;4.63;3.33;;;;;;;;;;5137058;27;20229;-89
2023/08/10 00:10:51;;;;;;;6.65;3.53;;;;;;;;;;5135819;27;20227;-90
2023/08/10 00:13:18;;;;;;;5.07;3.42;;;;;;;;;;5136917;27;20220;-89
2023/08/10 00:15:46;;;;;;;4.00;3.20;;;;;;;;;;5136663;27;20253;-88
2023/08/10 00:18:13;;;;;;;3.10;2.80;;;;;;;;;;5115871;28;20307;-90
2023/08/10 00:20:40;;;;;;;4.20;3.22;;;;;;;;;;5115014;28;20251;-89
2023/08/10 00:23:07;;;;;;;3.80;3.13;;;;;;;;;;5115737;28;20193;-89
2023/08/10 00:25:35;;;;;;;4.55;3.05;;;;;;;;;;5116131;28;20224;-89
2023/08/10 00:28:06;;;;;;;3.45;3.03;;;;;;;;;;5116795;28;20658;-91
2023/08/10 00:30:34;;;;;;;3.88;2.95;;;;;;;;;;5114679;28;20285;-90
2023/08/10 00:33:01;;;;;;;4.82;3.10;;;;;;;;;;5115175;28;20217;-90
2023/08/10 00:35:28;;;;;;;5.00;3.03;;;;;;;;;;5116253;28;20192;-89
2023/08/10 00:37:56;;;;;;;4.13;2.95;;;;;;;;;;5115741;28;20657;-89
2023/08/10 00:40:24;;;;;;;3.40;2.90;;;;;;;;;;5115463;28;20222;-90
2023/08/10 00:42:51;;;;;;;3.50;3.20;;;;;;;;;;5115242;28;20213;-89
2023/08/10 00:45:20;;;;;;;4.13;2.92;;;;;;;;;;5115212;28;20228;-90
2023/08/10 00:47:47;;;;;;;3.95;3.08;;;;;;;;;;5114631;28;20225;-89
2023/08/10 00:50:14;;;;;;;4.63;2.85;;;;;;;;;;5115374;28;20210;-89
2023/08/10 00:52:41;;;;;;;4.05;3.28;;;;;;;;;;5115023;28;20745;-89
2023/08/10 00:55:09;;;;;;;5.43;2.95;;;;;;;;;;5115522;28;20627;-90
2023/08/10 00:57:36;;;;;;;3.53;2.80;;;;;;;;;;5115441;28;20326;-89
2023/08/10 01:00:06;;;;;;;4.43;3.25;;;;;;;;;;5116316;28;20200;-89
2023/08/10 01:02:35;;;;;;;3.53;3.10;;;;;;;;;;5117917;28;20240;-89
2023/08/10 01:05:02;;;;;;;4.05;2.97;;;;;;;;;;5115484;28;20282;-89
2023/08/10 01:07:33;;;;;;;5.00;2.90;;;;;;;;;;5116588;28;20273;-90
2023/08/10 01:10:04;;;;;;;3.92;2.80;;;;;;;;;;5116308;28;20285;-90
2023/08/10 01:12:33;;;;;;;3.78;2.80;;;;;;;;;;5116623;28;20196;-90
2023/08/10 01:15:04;;;;;;;4.50;2.80;;;;;;;;;;5116099;28;20218;-90
2023/08/10 01:17:35;;;;;;;3.63;2.83;;;;;;;;;;5115898;28;20659;-88
2023/08/10 01:20:05;;;;;;;4.18;2.83;;;;;;;;;;5115964;28;20190;-89
2023/08/10 01:22:38;;;;;;;4.80;2.20;;;;;;;;;;5114984;28;20212;-89
2023/08/10 01:25:08;;;;;;;3.60;2.85;;;;;;;;;;5115864;28;20617;-89
2023/08/10 01:27:36;;;;;;;3.22;2.35;;;;;;;;;;5115635;28;20243;-88
2023/08/10 01:30:03;;;;;;;2.75;2.30;;;;;;;;;;5114827;28;20273;-88
2023/08/10 01:32:32;;;;;;;2.40;2.20;;;;;;;;;;5116500;28;20194;-89
2023/08/10 01:34:59;;;;;;;2.65;1.85;;;;;;;;;;5120763;28;20236;-88
2023/08/10 01:37:27;;;;;;;5.18;2.40;;;;;;;;;;5119031;28;20232;-90
2023/08/10 01:39:55;;;;;;;4.25;2.00;;;;;;;;;;5118501;28;20236;-90
2023/08/10 01:42:25;;;;;;;2.00;1.80;;;;;;;;;;5118551;28;20201;-89
2023/08/10 01:44:53;;;;;;;2.63;1.90;;;;;;;;;;5121293;28;20289;-89
2023/08/10 01:47:26;;;;;;;4.72;2.10;;;;;;;;;;5124242;28;20296;-92
2023/08/10 01:49:55;;;;;;;2.40;1.90;;;;;;;;;;5125354;28;20201;-89
2023/08/10 01:52:24;;;;;;;2.83;2.03;;;;;;;;;;5119881;28;20190;-91
2023/08/10 01:54:52;;;;;;;2.42;1.90;;;;;;;;;;5118606;28;20276;-90
2023/08/10 01:57:19;;;;;;;2.88;2.22;;;;;;;;;;5118348;28;20256;-90
2023/08/10 01:59:48;;;;;;;2.17;1.75;;;;;;;;;;5118668;28;20231;-90
2023/08/10 02:02:15;;;;;;;2.22;1.77;;;;;;;;;;5117690;28;20730;-91
2023/08/10 02:04:43;;;;;;;4.72;1.85;;;;;;;;;;5119218;28;20306;-91
2023/08/10 02:07:10;;;;;;;2.22;1.90;;;;;;;;;;5118129;28;20232;-90
2023/08/10 02:09:38;;;;;;;2.30;1.70;;;;;;;;;;5118241;28;20236;-90
2023/08/10 02:12:05;;;;;;;2.83;1.90;;;;;;;;;;5117546;28;20198;-91
2023/08/10 02:14:33;;;;;;;3.90;2.00;;;;;;;;;;5118033;28;20232;-90
2023/08/10 02:17:02;;;;;;;3.75;1.92;;;;;;;;;;5117587;28;20719;-90
2023/08/10 02:19:29;;;;;;;2.40;1.90;;;;;;;;;;5118264;28;20276;-90
2023/08/10 02:21:56;;;;;;;1.85;1.63;;;;;;;;;;5117926;28;20217;-91
2023/08/10 02:24:24;;;;;;;1.83;1.55;;;;;;;;;;5118714;28;20258;-91
2023/08/10 02:26:51;;;;;;;2.00;1.70;;;;;;;;;;5118203;28;20619;-90
2023/08/10 02:29:18;;;;;;;4.57;1.88;;;;;;;;;;5119595;28;20201;-90
2023/08/10 02:31:47;;;;;;;2.78;1.60;;;;;;;;;;5117890;28;20211;-91
2023/08/10 02:34:15;;;;;;;3.47;1.88;;;;;;;;;;5118389;28;20194;-91
2023/08/10 02:36:42;;;;;;;2.20;1.58;;;;;;;;;;5118572;28;20213;-90
2023/08/10 02:39:10;;;;;;;1.80;1.50;;;;;;;;;;5118179;28;20308;-88
2023/08/10 02:41:37;;;;;;;2.05;1.85;;;;;;;;;;5118171;28;20209;-90
2023/08/10 02:44:04;;;;;;;2.88;1.88;;;;;;;;;;5119924;27;20738;-90
2023/08/10 02:46:32;;;;;;;1.77;1.50;;;;;;;;;;5117750;28;20214;-90
2023/08/10 02:48:59;;;;;;;2.72;1.70;;;;;;;;;;5117286;27;20186;-91
2023/08/10 02:51:27;;;;;;;2.40;1.40;;;;;;;;;;5117733;28;20616;-90
2023/08/10 02:53:55;;;;;;;2.42;1.70;;;;;;;;;;5118023;28;20261;-90
2023/08/10 02:56:22;;;;;;;2.63;1.58;;;;;;;;;;5116767;28;20193;-90
2023/08/10 02:58:49;;;;;;;2.08;1.77;;;;;;;;;;5117179;28;20221;-91
2023/08/10 03:01:17;;;;;;;3.38;1.45;;;;;;;;;;5116473;28;20312;-92
2023/08/10 03:03:45;;;;;;;1.77;1.60;;;;;;;;;;5117066;28;20186;-90
2023/08/10 03:06:12;;;;;;;1.85;1.60;;;;;;;;;;5116911;28;20190;-90
2023/08/10 03:08:41;;;;;;;1.92;1.70;;;;;;;;;;5117679;27;20271;-90
2023/08/10 03:11:08;;;;;;;2.42;1.70;;;;;;;;;;5116417;28;20248;-90
2023/08/10 03:13:36;;;;;;;1.67;1.58;;;;;;;;;;5116377;28;20232;-91
2023/08/10 03:16:03;;;;;;;5.55;2.63;;;;;;;;;;5119210;27;20198;-90
2023/08/10 03:18:30;;;;;;;2.45;1.90;;;;;;;;;;5137239;27;20221;-90
2023/08/10 03:20:57;;;;;;;1.65;1.55;;;;;;;;;;5136246;27;20272;-91
2023/08/10 03:23:26;;;;;;;4.20;2.05;;;;;;;;;;5137306;27;20232;-91
2023/08/10 03:25:55;;;;;;;4.57;1.90;;;;;;;;;;5136898;27;20579;-90
2023/08/10 03:28:22;;;;;;;1.92;1.83;;;;;;;;;;5137288;27;20255;-90
2023/08/10 03:30:50;;;;;;;2.25;1.80;;;;;;;;;;5136140;27;20212;-91
2023/08/10 03:33:17;;;;;;;2.05;1.67;;;;;;;;;;5135837;27;20197;-90
2023/08/10 03:35:44;;;;;;;2.03;1.77;;;;;;;;;;5137408;27;20283;-90
2023/08/10 03:38:12;;;;;;;3.05;1.85;;;;;;;;;;5137346;27;20220;-90
2023/08/10 03:40:39;;;;;;;3.05;1.77;;;;;;;;;;5136586;27;20608;-90
2023/08/10 03:43:08;;;;;;;1.70;1.60;;;;;;;;;;5137836;27;20213;-90
2023/08/10 03:45:35;;;;;;;1.92;1.70;;;;;;;;;;5136973;27;20201;-91
2023/08/10 03:48:02;;;;;;;1.83;1.45;;;;;;;;;;5137839;27;20228;-91
2023/08/10 03:50:30;;;;;;;1.98;1.60;;;;;;;;;;5136879;27;20211;-90
2023/08/10 03:52:57;;;;;;;2.95;1.60;;;;;;;;;;5137283;27;20208;-90
2023/08/10 03:55:24;;;;;;;2.20;1.77;;;;;;;;;;5136072;27;20284;-90
2023/08/10 03:57:52;;;;;;;3.08;1.70;;;;;;;;;;5136300;27;20252;-90
2023/08/10 04:00:21;;;;;;;1.70;1.60;;;;;;;;;;5136558;27;20236;-90
2023/08/10 04:02:49;;;;;;;3.58;1.70;;;;;;;;;;5137399;27;20769;-90
2023/08/10 04:05:16;;;;;;;2.78;1.63;;;;;;;;;;5136167;27;20197;-88
2023/08/10 04:07:44;;;;;;;3.05;1.90;;;;;;;;;;5136275;27;20200;-90
2023/08/10 04:10:11;;;;;;;2.65;1.48;;;;;;;;;;5136425;27;20197;-90
2023/08/10 04:12:39;;;;;;;1.73;1.60;;;;;;;;;;5136832;27;20230;-90
2023/08/10 04:15:07;;;;;;;3.00;1.38;;;;;;;;;;5136964;27;20292;-90
2023/08/10 04:17:36;;;;;;;2.22;1.20;;;;;;;;;;5136170;27;20193;-90
2023/08/10 04:20:08;;;;;;;2.33;1.27;;;;;;;;;;5136678;27;20236;-89
2023/08/10 04:22:35;;;;;;;3.08;1.55;;;;;;;;;;5136205;27;20246;-89
2023/08/10 04:25:03;;;;;;;1.80;1.52;;;;;;;;;;5136691;27;20221;-90
2023/08/10 04:27:31;;;;;;;1.90;1.20;;;;;;;;;;5135384;27;20200;-91
2023/08/10 04:29:59;;;;;;;5.15;1.73;;;;;;;;;;5136274;27;20232;-90
2023/08/10 04:32:26;;;;;;;1.98;1.30;;;;;;;;;;5137125;27;20204;-90
2023/08/10 04:34:55;;;;;;;2.00;1.20;;;;;;;;;;5136915;28;20197;-90
2023/08/10 04:37:23;;;;;;;1.58;1.30;;;;;;;;;;5136628;28;20283;-90
2023/08/10 04:39:50;;;;;;;1.52;1.27;;;;;;;;;;5136617;28;20264;-91
2023/08/10 04:42:17;;;;;;;1.52;1.25;;;;;;;;;;5137527;28;20185;-90
2023/08/10 04:44:45;;;;;;;1.40;1.20;;;;;;;;;;5136244;27;20565;-90
2023/08/10 04:47:12;;;;;;;3.40;1.48;;;;;;;;;;5136355;28;20257;-90
2023/08/10 04:49:39;;;;;;;2.85;1.38;;;;;;;;;;5136553;28;20276;-90
2023/08/10 04:52:08;;;;;;;1.20;1.10;;;;;;;;;;5137156;28;20212;-91
2023/08/10 04:54:37;;;;;;;3.35;1.30;;;;;;;;;;5136445;28;20225;-90
2023/08/10 04:57:05;;;;;;;2.08;1.30;;;;;;;;;;5136381;28;20213;-90
2023/08/10 04:59:32;;;;;;;1.42;1.33;;;;;;;;;;5136187;27;20285;-89
2023/08/10 05:01:59;;;;;;;1.95;1.23;;;;;;;;;;5136664;28;20328;-91
2023/08/10 05:04:27;;;;;;;1.38;1.20;;;;;;;;;;5136462;28;20228;-90
2023/08/10 05:06:54;;;;;;;4.55;1.38;;;;;;;;;;5138842;27;20205;-92
2023/08/10 05:09:23;;;;;;;1.38;1.05;;;;;;;;;;5140190;27;20260;-90
2023/08/10 05:11:50;;;;;;;2.50;1.20;;;;;;;;;;5139410;27;20224;-91
2023/08/10 05:14:17;;;;;;;1.88;1.30;;;;;;;;;;5140466;27;20193;-90
2023/08/10 05:16:45;;;;;;;1.40;1.20;;;;;;;;;;5131052;27;20221;-90
2023/08/10 05:19:12;;;;;;;2.08;1.40;;;;;;;;;;5119810;28;20225;-90
2023/08/10 05:21:39;;;;;;;1.67;1.25;;;;;;;;;;5120011;28;20198;-91
2023/08/10 05:24:07;;;;;;;1.40;1.30;;;;;;;;;;5118748;28;20225;-89
2023/08/10 05:26:36;;;;;;;2.35;1.20;;;;;;;;;;5118528;28;20261;-90
2023/08/10 05:29:03;;;;;;;5.38;1.20;;;;;;;;;;5119206;28;20280;-89
2023/08/10 05:31:31;;;;;;;1.42;1.30;;;;;;;;;;5119224;28;20543;-90
2023/08/10 05:33:58;;;;;;;2.80;1.38;;;;;;;;;;5117377;28;20200;-89
2023/08/10 05:36:25;;;;;;;1.90;1.35;;;;;;;;;;5120115;28;20243;-90
2023/08/10 05:38:53;;;;;;;2.10;1.20;;;;;;;;;;5118581;28;20253;-89
2023/08/10 05:41:21;;;;;;;2.40;1.30;;;;;;;;;;5118520;28;20201;-90
2023/08/10 05:43:50;;;;;;;1.23;1.13;;;;;;;;;;5118545;28;20193;-89
2023/08/10 05:46:17;;;;;;;2.13;1.42;;;;;;;;;;5120214;28;20193;-90
2023/08/10 05:48:44;;;;;;;1.60;1.48;;;;;;;;;;5123496;28;20208;-89
2023/08/10 05:51:11;;;;;;;1.88;1.48;;;;;;;;;;5123927;28;20648;-91
2023/08/10 05:53:38;;;;;;;2.60;1.67;;;;;;;;;;5118722;28;20252;-89
2023/08/10 05:56:05;;;;;;;2.67;1.50;;;;;;;;;;5118179;27;20281;-89
2023/08/10 05:58:33;;;;;;;2.45;1.58;;;;;;;;;;5120214;28;20217;-90
2023/08/10 06:01:03;;;;;;;4.18;1.40;;;;;;;;;;5119636;28;20286;-90
2023/08/10 06:03:30;;;;;;;1.90;1.30;;;;;;;;;;5119020;28;20190;-90
2023/08/10 06:05:57;;;;;;;1.98;1.50;;;;;;;;;;5118530;28;20669;-89
2023/08/10 06:08:25;;;;;;;1.52;1.40;;;;;;;;;;5118800;28;20713;-88
2023/08/10 06:10:52;;;;;;;2.95;1.67;;;;;;;;;;5118648;28;20686;-90
2023/08/10 06:13:20;;;;;;;2.42;1.38;;;;;;;;;;5117786;28;20217;-89
2023/08/10 06:15:47;;;;;;;3.47;1.60;;;;;;;;;;5117688;28;20190;-89
2023/08/10 06:18:16;;;;;;;2.35;1.50;;;;;;;;;;5137992;27;20185;-89
2023/08/10 06:20:44;;;;;;;2.22;1.50;;;;;;;;;;5136975;27;20193;-89
2023/08/10 06:23:11;;;;;;;1.70;1.50;;;;;;;;;;5137825;27;20676;-89
2023/08/10 06:25:39;;;;;;;2.15;1.30;;;;;;;;;;5137854;27;20284;-89
2023/08/10 06:28:08;;;;;;;2.92;1.48;;;;;;;;;;5137873;27;20193;-90
2023/08/10 06:30:36;;;;;;;1.75;1.60;;;;;;;;;;5138479;27;20220;-90
2023/08/10 06:33:03;;;;;;;1.70;1.60;;;;;;;;;;5137269;27;20189;-90
2023/08/10 06:35:35;;;;;;;3.50;1.50;;;;;;;;;;5137644;27;20276;-90
2023/08/10 06:38:04;;;;;;;2.58;1.80;;;;;;;;;;5137870;27;20189;-89
2023/08/10 06:40:32;;;;;;;3.22;1.60;;;;;;;;;;5137127;27;20229;-89
2023/08/10 06:42:59;;;;;;;1.70;1.60;;;;;;;;;;5138105;27;20197;-91
2023/08/10 06:45:27;;;;;;;3.45;1.88;;;;;;;;;;5137766;27;20276;-89
2023/08/10 06:47:54;;;;;;;2.13;1.60;;;;;;;;;;5138388;27;20200;-90
2023/08/10 06:50:21;;;;;;;2.08;1.45;;;;;;;;;;5138695;27;20193;-90
2023/08/10 06:52:50;;;;;;;1.95;1.50;;;;;;;;;;5137670;27;20189;-90
2023/08/10 06:55:17;;;;;;;2.33;1.27;;;;;;;;;;5138191;27;20228;-89
2023/08/10 06:57:44;;;;;;;1.77;1.50;;;;;;;;;;5136419;27;20228;-90
2023/08/10 07:00:14;;;;;;;2.63;1.30;;;;;;;;;;5137643;27;20224;-90
2023/08/10 07:02:41;;;;;;;1.70;1.35;;;;;;;;;;5137406;27;20224;-90
2023/08/10 07:05:10;;;;;;;1.98;1.30;;;;;;;;;;5137304;27;20232;-90
2023/08/10 07:07:37;;;;;;;1.65;1.50;;;;;;;;;;5136120;27;20191;-92
2023/08/10 07:10:09;;;;;;;1.73;1.48;;;;;;;;;;5136401;27;20740;-91
2023/08/10 07:12:36;;;;;;;3.15;1.55;;;;;;;;;;5136406;27;20292;-91
2023/08/10 07:15:04;;;;;;;2.47;1.92;;;;;;;;;;5136974;27;20640;-90
2023/08/10 07:17:32;;;;;;;2.25;1.35;;;;;;;;;;5137002;27;20233;-91
2023/08/10 07:19:59;;;;;;;5.05;1.52;;;;;;;;;;5136963;27;20312;-92
2023/08/10 07:22:26;;;;;;;1.63;1.50;;;;;;;;;;5136137;27;20241;-91
2023/08/10 07:24:54;;;;;;;2.80;1.60;;;;;;;;;;5135594;27;20247;-92
2023/08/10 07:27:23;;;;;;;1.95;1.65;;;;;;;;;;5135534;27;20189;-92
2023/08/10 07:29:50;;;;;;;1.50;1.35;;;;;;;;;;5134701;27;20217;-90
2023/08/10 07:32:19;;;;;;;1.88;1.58;;;;;;;;;;5135936;27;20185;-90
2023/08/10 07:34:46;;;;;;;1.50;1.33;;;;;;;;;;5135467;27;20205;-91
2023/08/10 07:37:14;;;;;;;3.28;1.58;;;;;;;;;;5135770;27;20228;-92
2023/08/10 07:39:41;;;;;;;2.55;1.40;;;;;;;;;;5135297;27;20312;-92
2023/08/10 07:42:08;;;;;;;1.48;1.30;;;;;;;;;;5135490;27;20276;-91
2023/08/10 07:44:37;;;;;;;1.77;1.40;;;;;;;;;;5135913;27;20192;-92
2023/08/10 07:47:04;;;;;;;1.40;1.30;;;;;;;;;;5135119;27;20204;-92
2023/08/10 07:49:32;;;;;;;2.17;1.60;;;;;;;;;;5134798;27;20194;-92
2023/08/10 07:51:59;;;;;;;2.30;1.48;;;;;;;;;;5135060;27;20196;-93
2023/08/10 07:54:26;;;;;;;2.13;1.30;;;;;;;;;;5134813;27;20276;-93
2023/08/10 07:56:54;;;;;;;2.45;1.40;;;;;;;;;;5135255;27;20871;-92
2023/08/10 07:59:21;;;;;;;3.33;1.42;;;;;;;;;;5135355;27;20324;-91
2023/08/10 08:01:50;;;;;;;3.33;1.80;;;;;;;;;;5134645;27;20232;-92
2023/08/10 08:04:17;;;;;;;1.92;1.50;;;;;;;;;;5135135;27;20201;-92
2023/08/10 08:06:44;;;;;;;1.50;1.40;;;;;;;;;;5135116;27;20272;-93
2023/08/10 08:09:13;;;;;;;2.15;1.52;;;;;;;;;;5135080;27;20225;-91
2023/08/10 08:11:40;;;;;;;1.77;1.30;;;;;;;;;;5135639;27;20531;-93
2023/08/10 08:14:07;;;;;;;2.50;1.35;;;;;;;;;;5135695;27;20288;-94
2023/08/10 08:16:35;;;;;;;2.10;1.30;;;;;;;;;;5135081;27;20277;-92
2023/08/10 08:19:04;;;;;;;2.30;1.25;;;;;;;;;;5135122;27;20223;-94
2023/08/10 08:21:32;;;;;;;1.90;1.30;;;;;;;;;;5136926;27;20627;-92
2023/08/10 08:24:00;;;;;;;2.20;1.33;;;;;;;;;;5135585;28;20271;-92
2023/08/10 08:26:28;;;;;;;1.33;1.23;;;;;;;;;;5135293;28;20196;-93
2023/08/10 08:28:55;;;;;;;3.60;1.33;;;;;;;;;;5134543;28;20661;-93
2023/08/10 08:31:23;;;;;;;2.30;1.30;;;;;;;;;;5135412;28;20661;-93
2023/08/10 08:33:50;;;;;;;25.63;23.52;;;;;;;;;;5134983;28;20185;-92
2023/08/10 08:36:20;;;;;;;4.55;3.22;;;;;;;;;;5135240;28;20197;-93
2023/08/10 08:38:47;;;;;;;1.60;1.50;;;;;;;;;;5134337;28;20232;-93
2023/08/10 08:41:17;;;;;;;1.40;1.30;;;;;;;;;;5136077;27;20686;-93
2023/08/10 08:43:47;;;;;;;2.20;1.27;;;;;;;;;;5139283;27;20280;-92
2023/08/10 08:46:15;;;;;;;1.40;1.10;;;;;;;;;;5138868;27;20661;-93
2023/08/10 08:48:43;;;;;;;2.13;1.38;;;;;;;;;;5139805;27;20239;-93
2023/08/10 08:51:10;;;;;;;2.78;1.20;;;;;;;;;;5138517;27;20195;-93
2023/08/10 08:53:39;;;;;;;1.67;1.15;;;;;;;;;;5138664;27;20287;-94
2023/08/10 08:56:06;;;;;;;2.25;1.10;;;;;;;;;;5138204;27;20193;-93
2023/08/10 08:58:33;;;;;;;1.38;1.13;;;;;;;;;;5139196;27;20289;-92
2023/08/10 09:01:02;;;;;;;1.50;1.20;;;;;;;;;;5138389;27;20256;-94
2023/08/10 09:03:29;;;;;;;1.90;1.10;;;;;;;;;;5139392;27;20253;-95
2023/08/10 09:05:57;;;;;;;1.42;1.20;;;;;;;;;;5138396;27;20220;-93
2023/08/10 09:08:24;;;;;;;1.90;1.27;;;;;;;;;;5138570;27;20280;-94
2023/08/10 09:10:53;;;;;;;2.33;1.40;;;;;;;;;;5138322;27;20186;-93
2023/08/10 09:13:22;;;;;;;1.55;1.20;;;;;;;;;;5138526;27;20207;-94
2023/08/10 09:16:04;;;;;;;2.05;1.23;;;;;;;;;;5138247;27;20181;-94
2023/08/10 09:18:32;;;;;;;1.50;1.23;;;;;;;;;;5138561;27;20216;-94
2023/08/10 09:21:07;;;;;;;1.63;1.30;;;;;;;;;;5138490;27;20224;-92
2023/08/10 09:23:36;;;;;;;1.38;1.20;;;;;;;;;;5138807;27;20185;-93
2023/08/10 09:26:09;;;;;;;1.50;1.30;;;;;;;;;;5137921;27;20283;-93
2023/08/10 09:28:37;;;;;;;3.30;1.25;;;;;;;;;;5137918;27;20236;-94
2023/08/10 09:31:04;;;;;;;2.58;1.20;;;;;;;;;;5138003;27;20204;-93
2023/08/10 09:33:33;;;;;;;1.10;1.00;;;;;;;;;;5138397;27;20207;-93
2023/08/10 09:36:01;;;;;;;1.65;1.10;;;;;;;;;;5138064;27;20318;-94
2023/08/10 09:38:28;;;;;;;1.35;1.25;;;;;;;;;;5138230;27;20193;-93
2023/08/10 09:41:10;;;;;;;1.58;1.20;;;;;;;;;;5138099;27;20743;-93
2023/08/10 09:43:38;;;;;;;1.33;1.23;;;;;;;;;;5137999;27;20233;-93
2023/08/10 09:46:05;;;;;;;1.20;1.02;;;;;;;;;;5138469;27;20228;-94
2023/08/10 09:48:36;;;;;;;2.40;1.20;;;;;;;;;;5143624;27;20284;-93
2023/08/10 09:51:03;;;;;;;1.40;1.23;;;;;;;;;;5145872;27;20197;-93
2023/08/10 09:53:31;;;;;;;1.20;1.10;;;;;;;;;;5142762;27;20197;-93
2023/08/10 09:55:59;;;;;;;3.80;1.33;;;;;;;;;;5139076;27;20185;-93
2023/08/10 09:58:28;;;;;;;1.98;1.02;;;;;;;;;;5138348;27;20231;-92
2023/08/10 10:00:55;;;;;;;1.80;1.20;;;;;;;;;;5137103;27;20225;-92
2023/08/10 10:03:28;;;;;;;1.92;1.00;;;;;;;;;;5137758;27;20189;-93
2023/08/10 10:05:55;;;;;;;2.42;1.35;;;;;;;;;;5138522;27;20181;-94
2023/08/10 10:08:23;;;;;;;2.38;1.10;;;;;;;;;;5139600;27;20197;-95
2023/08/10 10:10:50;;;;;;;1.58;1.15;;;;;;;;;;5139170;27;20199;-94
2023/08/10 10:13:17;;;;;;;1.45;1.35;;;;;;;;;;5140598;27;20275;-94
2023/08/10 10:15:46;;;;;;;1.95;1.40;;;;;;;;;;5142265;27;20210;-95
2023/08/10 10:18:14;;;;;;;2.30;1.20;;;;;;;;;;5119997;28;20198;-94
2023/08/10 10:20:43;;;;;;;1.88;1.30;;;;;;;;;;5118793;28;20241;-92
2023/08/10 10:23:17;;;;;;;1.45;1.35;;;;;;;;;;5118151;28;20210;-93
2023/08/10 10:25:56;;;;;;;1.35;1.17;;;;;;;;;;5117534;28;20240;-93
2023/08/10 10:28:23;;;;;;;1.50;1.17;;;;;;;;;;5119375;28;20565;-95
2023/08/10 10:31:07;;;;;;;1.20;1.10;;;;;;;;;;5118971;28;20206;-95
2023/08/10 10:33:34;;;;;;;1.27;1.10;;;;;;;;;;5121081;28;20190;-94
2023/08/10 10:36:12;;;;;;;3.13;1.40;;;;;;;;;;5118895;28;20238;-93
2023/08/10 10:38:39;;;;;;;2.05;1.25;;;;;;;;;;5122964;28;20276;-94
2023/08/10 10:41:11;;;;;;;1.30;1.20;;;;;;;;;;5119378;28;20235;-93
2023/08/10 10:43:38;;;;;;;2.40;1.40;;;;;;;;;;5118430;28;20194;-93
2023/08/10 10:46:07;;;;;;;1.52;1.20;;;;;;;;;;5118307;28;20233;-93
2023/08/10 10:48:35;;;;;;;1.67;1.42;;;;;;;;;;5120098;28;20225;-93
2023/08/10 10:51:03;;;;;;;2.35;1.35;;;;;;;;;;5117232;28;20285;-93
2023/08/10 10:53:32;;;;;;;1.60;1.30;;;;;;;;;;5117663;28;20220;-93
2023/08/10 10:56:00;;;;;;;2.42;1.38;;;;;;;;;;5118176;28;20186;-93
2023/08/10 10:58:29;;;;;;;1.40;1.30;;;;;;;;;;5116644;28;20201;-94
2023/08/10 11:00:56;;;;;;;4.40;1.40;;;;;;;;;;5116895;28;20418;-94
2023/08/10 11:03:30;;;;;;;1.30;1.20;;;;;;;;;;5116829;28;20194;-94
2023/08/10 11:05:57;;;;;;;3.15;1.35;;;;;;;;;;5116732;28;20224;-92
2023/08/10 11:08:26;;;;;;;1.70;1.60;;;;;;;;;;5119532;28;20193;-93
2023/08/10 11:10:55;;;;;;;1.65;1.25;;;;;;;;;;5117522;28;20206;-94
2023/08/10 11:13:26;;;;;;;1.52;1.40;;;;;;;;;;5116743;27;20197;-94
2023/08/10 11:15:53;;;;;;;1.80;1.50;;;;;;;;;;5118167;27;20185;-95
2023/08/10 11:18:20;;;;;;;7.78;2.17;;;;;;;;;;5138408;27;20249;-94
2023/08/10 11:20:51;;;;;;;1.52;1.42;;;;;;;;;;5139020;27;20752;-94
2023/08/10 11:23:18;;;;;;;3.70;1.75;;;;;;;;;;5138812;27;20253;-94
2023/08/10 11:25:49;;;;;;;1.67;1.58;;;;;;;;;;5137732;27;20201;-94
2023/08/10 11:28:18;;;;;;;3.50;1.60;;;;;;;;;;5137086;27;20212;-94
2023/08/10 11:30:46;;;;;;;2.00;1.67;;;;;;;;;;5137441;27;20284;-93
2023/08/10 11:33:13;;;;;;;1.90;1.60;;;;;;;;;;5137559;27;20197;-93
2023/08/10 11:35:44;;;;;;;2.70;1.58;;;;;;;;;;5137234;27;20284;-94
2023/08/10 11:38:12;;;;;;;2.55;1.65;;;;;;;;;;5138269;27;20288;-95
2023/08/10 11:40:40;;;;;;;2.05;1.50;;;;;;;;;;5137579;27;20715;-93
2023/08/10 11:43:10;;;;;;;2.20;1.52;;;;;;;;;;5136618;27;20200;-94
2023/08/10 11:45:38;;;;;;;1.77;1.40;;;;;;;;;;5136871;27;20659;-95
2023/08/10 11:48:07;;;;;;;2.40;1.50;;;;;;;;;;5136486;27;20187;-94
2023/08/10 11:50:34;;;;;;;2.47;1.38;;;;;;;;;;5136296;27;20220;-94
2023/08/10 11:53:12;;;;;;;1.58;1.30;;;;;;;;;;5137231;27;20219;-93
2023/08/10 11:55:53;;;;;;;1.85;1.50;;;;;;;;;;5137890;27;20626;-94
2023/08/10 11:58:21;;;;;;;2.90;1.80;;;;;;;;;;5137826;27;20204;-95
2023/08/10 12:00:49;;;;;;;1.77;1.50;;;;;;;;;;5136394;27;20230;-94
2023/08/10 12:03:18;;;;;;;1.85;1.30;;;;;;;;;;5136541;27;20688;-94
2023/08/10 12:05:46;;;;;;;2.00;1.33;;;;;;;;;;5136948;27;20235;-95
2023/08/10 12:08:14;;;;;;;1.75;1.58;;;;;;;;;;5135997;27;20216;-93
2023/08/10 12:10:42;;;;;;;1.40;1.30;;;;;;;;;;5136354;27;20672;-94
2023/08/10 12:13:14;;;;;;;2.05;1.52;;;;;;;;;;5136112;27;20196;-94
2023/08/10 12:15:46;;;;;;;2.40;1.30;;;;;;;;;;5135855;27;20287;-95
2023/08/10 12:18:14;;;;;;;4.38;1.30;;;;;;;;;;5117793;27;20234;-95
2023/08/10 12:20:42;;;;;;;3.72;1.45;;;;;;;;;;5116389;28;20221;-94
2023/08/10 12:23:10;;;;;;;2.15;1.50;;;;;;;;;;5115267;28;20202;-95
2023/08/10 12:25:37;;;;;;;2.83;1.58;;;;;;;;;;5115832;28;20237;-94
2023/08/10 12:28:06;;;;;;;2.13;1.33;;;;;;;;;;5116433;28;20231;-93
2023/08/10 12:30:35;;;;;;;1.55;1.30;;;;;;;;;;5115244;28;20216;-93
2023/08/10 12:33:03;;;;;;;1.50;1.35;;;;;;;;;;5114398;28;20288;-95
2023/08/10 12:35:30;;;;;;;2.55;1.17;;;;;;;;;;5115746;28;20284;-94
2023/08/10 12:37:58;;;;;;;6.47;1.73;;;;;;;;;;5114920;28;20288;-94
2023/08/10 12:40:25;;;;;;;2.63;1.30;;;;;;;;;;5114775;28;20284;-94
2023/08/10 12:42:52;;;;;;;3.35;1.30;;;;;;;;;;5116103;28;20193;-94
2023/08/10 12:45:21;;;;;;;2.50;1.45;;;;;;;;;;5115361;28;20213;-95
2023/08/10 12:47:49;;;;;;;1.65;1.40;;;;;;;;;;5115193;28;20216;-94
2023/08/10 12:50:17;;;;;;;1.98;1.48;;;;;;;;;;5115580;28;20197;-94
2023/08/10 12:52:45;;;;;;;2.55;1.40;;;;;;;;;;5115387;28;20189;-94
2023/08/10 12:55:12;;;;;;;2.05;1.48;;;;;;;;;;5114619;28;20185;-93
2023/08/10 12:57:40;;;;;;;1.60;1.50;;;;;;;;;;5115120;28;20239;-93
2023/08/10 13:00:10;;;;;;;1.60;1.48;;;;;;;;;;5115086;28;20618;-93
2023/08/10 13:02:37;;;;;;;2.15;1.50;;;;;;;;;;5114916;28;20236;-93
2023/08/10 13:05:06;;;;;;;1.40;1.27;;;;;;;;;;5114916;28;20292;-93
2023/08/10 13:07:34;;;;;;;5.03;1.55;;;;;;;;;;5114566;28;20653;-94
2023/08/10 13:10:02;;;;;;;1.85;1.42;;;;;;;;;;5113541;28;20200;-94
2023/08/10 13:12:29;;;;;;;2.42;1.55;;;;;;;;;;5113710;28;20189;-92
2023/08/10 13:14:56;;;;;;;1.40;1.30;;;;;;;;;;5114396;28;20257;-94
2023/08/10 13:17:24;;;;;;;2.05;1.40;;;;;;;;;;5127225;28;20283;-95
2023/08/10 13:19:55;;;;;;;3.20;1.30;;;;;;;;;;5134398;28;20276;-92
2023/08/10 13:22:23;;;;;;;2.35;1.45;;;;;;;;;;5134196;28;20220;-93
2023/08/10 13:24:51;;;;;;;2.60;1.42;;;;;;;;;;5134097;27;20272;-93
2023/08/10 13:27:18;;;;;;;2.40;1.50;;;;;;;;;;5135305;27;20224;-93
2023/08/10 13:29:45;;;;;;;2.88;1.50;;;;;;;;;;5138522;27;20204;-93
2023/08/10 13:32:13;;;;;;;1.60;1.50;;;;;;;;;;5138247;27;20188;-92
2023/08/10 13:34:40;;;;;;;2.30;1.40;;;;;;;;;;5138248;27;20203;-93
2023/08/10 13:37:08;;;;;;;3.97;1.60;;;;;;;;;;5138042;27;20283;-95
2023/08/10 13:39:37;;;;;;;1.75;1.60;;;;;;;;;;5137927;27;20248;-93
2023/08/10 13:42:04;;;;;;;2.97;1.55;;;;;;;;;;5137714;27;20708;-93
2023/08/10 13:44:31;;;;;;;2.20;1.83;;;;;;;;;;5137757;27;20279;-94
2023/08/10 13:46:59;;;;;;;1.75;1.58;;;;;;;;;;5137866;27;20623;-94
2023/08/10 13:49:26;;;;;;;3.80;1.67;;;;;;;;;;5145857;27;20227;-93
2023/08/10 13:51:53;;;;;;;4.25;1.60;;;;;;;;;;5147333;27;20188;-93
2023/08/10 13:54:21;;;;;;;3.92;1.75;;;;;;;;;;5143836;27;20187;-94
2023/08/10 13:56:56;;;;;;;2.38;1.60;;;;;;;;;;5138243;27;20208;-93
2023/08/10 13:59:24;;;;;;;4.45;1.88;;;;;;;;;;5138246;27;20207;-94
2023/08/10 14:01:52;;;;;;;4.10;1.60;;;;;;;;;;5137242;27;20321;-95
2023/08/10 14:04:19;;;;;;;1.83;1.60;;;;;;;;;;5137609;27;20287;-93
2023/08/10 14:06:46;;;;;;;2.30;1.60;;;;;;;;;;5137072;27;20201;-93
2023/08/10 14:09:13;;;;;;;1.77;1.48;;;;;;;;;;5137330;27;20268;-93
2023/08/10 14:11:43;;;;;;;2.90;1.70;;;;;;;;;;5137336;27;20529;-94
2023/08/10 14:14:12;;;;;;;6.25;1.60;;;;;;;;;;5136971;27;20203;-93
2023/08/10 14:16:40;;;;;;;1.50;1.40;;;;;;;;;;5129575;27;20284;-93
2023/08/10 14:19:07;;;;;;;1.95;1.58;;;;;;;;;;5116815;28;20186;-94
2023/08/10 14:21:34;;;;;;;2.63;1.70;;;;;;;;;;5115978;28;20609;-91
2023/08/10 14:24:02;;;;;;;1.88;1.67;;;;;;;;;;5116669;28;20269;-93
2023/08/10 14:26:29;;;;;;;1.60;1.50;;;;;;;;;;5116084;28;20190;-93
2023/08/10 14:28:57;;;;;;;1.70;1.60;;;;;;;;;;5116212;28;20717;-92
2023/08/10 14:31:26;;;;;;;2.63;1.77;;;;;;;;;;5116445;28;20193;-92
2023/08/10 14:33:53;;;;;;;3.33;1.85;;;;;;;;;;5117230;28;20653;-93
2023/08/10 14:36:20;;;;;;;2.08;1.75;;;;;;;;;;5117238;28;20209;-92
2023/08/10 14:38:47;;;;;;;5.10;2.55;;;;;;;;;;5115920;28;20219;-92
2023/08/10 14:41:15;;;;;;;2.78;1.65;;;;;;;;;;5116496;28;20311;-93
2023/08/10 14:43:42;;;;;;;3.55;1.80;;;;;;;;;;5116189;28;20286;-93
2023/08/10 14:46:10;;;;;;;2.28;1.70;;;;;;;;;;5116355;28;20283;-94
2023/08/10 14:48:39;;;;;;;2.17;1.90;;;;;;;;;;5116384;28;20189;-93